createdAt,value
2022-09-02T00:04:07.312Z,6.68
2022-09-02T00:09:11.885Z,4.80
2022-09-02T00:14:23.354Z,7.68
2022-09-02T00:19:26.434Z,5.10
2022-09-02T00:24:28.874Z,7.80
2022-09-02T00:29:31.195Z,8.07
2022-09-02T00:34:33.316Z,5.88
2022-09-02T00:39:35.549Z,9.13
2022-09-02T00:44:37.805Z,9.75
2022-09-02T00:49:43.518Z,5.05
2022-09-02T00:54:51.459Z,5.13
2022-09-02T01:00:09.900Z,6.22
2022-09-02T01:05:14.843Z,7.15
2022-09-02T01:10:23.261Z,6.03
2022-09-02T01:15:26.225Z,6.95
2022-09-02T01:20:28.288Z,7.13
2022-09-02T01:25:32.865Z,7.30
2022-09-02T01:30:36.412Z,6.25
2022-09-02T01:35:38.742Z,3.83
2022-09-02T01:40:41.592Z,6.47
2022-09-02T01:45:46.138Z,4.60
2022-09-02T01:50:52.720Z,5.85
2022-09-02T01:55:54.901Z,2.90
2022-09-02T02:00:57.448Z,5.47
2022-09-02T02:06:00.028Z,6.63
2022-09-02T02:11:03.756Z,3.35
2022-09-02T02:16:06.395Z,6.95
2022-09-02T02:21:09.024Z,3.00
2022-09-02T02:26:11.049Z,3.75
2022-09-02T02:31:13.059Z,3.92
2022-09-02T02:36:16.027Z,2.65
2022-09-02T02:41:18.106Z,5.50
2022-09-02T02:46:20.899Z,6.20
2022-09-02T02:51:23.189Z,3.63
2022-09-02T02:56:25.865Z,8.68
2022-09-02T03:01:29.066Z,6.25
2022-09-02T03:06:31.770Z,5.57
2022-09-02T03:11:34.180Z,6.93
2022-09-02T03:16:37.044Z,5.03
2022-09-02T03:21:39.449Z,6.35
2022-09-02T03:26:44.149Z,5.53
2022-09-02T03:31:47.544Z,10.25
2022-09-02T03:36:49.725Z,5.30
2022-09-02T03:41:53.427Z,7.07
2022-09-02T03:46:56.284Z,5.38
2022-09-02T03:51:58.523Z,6.63
2022-09-02T03:57:00.592Z,8.80
2022-09-02T04:02:03.574Z,4.80
2022-09-02T04:07:05.905Z,5.97
2022-09-02T04:12:08.259Z,3.88
2022-09-02T04:17:10.433Z,5.35
2022-09-02T04:22:12.570Z,4.68
2022-09-02T04:27:14.715Z,10.57
2022-09-02T04:32:20.201Z,5.40
2022-09-02T04:37:23.117Z,4.65
2022-09-02T04:42:26.761Z,8.52
2022-09-02T04:47:30.164Z,6.82
2022-09-02T04:52:32.630Z,7.10
2022-09-02T04:57:36.545Z,4.25
2022-09-02T05:02:41.005Z,10.70
2022-09-02T05:07:44.044Z,6.43
2022-09-02T05:12:46.279Z,7.15
2022-09-02T05:17:48.932Z,5.00
2022-09-02T05:22:51.395Z,4.68
2022-09-02T05:27:53.551Z,6.60
2022-09-02T05:32:56.005Z,5.22
2022-09-02T05:38:00.910Z,4.90
2022-09-02T05:43:05.369Z,13.38
2022-09-02T05:48:27.754Z,5.97
2022-09-02T05:53:31.861Z,9.88
2022-09-02T05:58:34.725Z,3.28
2022-09-02T06:03:37.209Z,3.97
2022-09-02T06:08:43.021Z,6.03
2022-09-02T06:13:45.502Z,7.40
2022-09-02T06:18:48.829Z,4.18
2022-09-02T06:23:50.950Z,6.70
2022-09-02T06:28:53.072Z,5.18
2022-09-02T06:33:56.609Z,6.88
2022-09-02T06:39:00.954Z,4.25
2022-09-02T06:44:07.718Z,6.78
2022-09-02T06:49:16.352Z,3.90
2022-09-02T06:54:23.221Z,5.57
2022-09-02T06:59:31.835Z,4.43
2022-09-02T07:04:54.379Z,8.53
2022-09-02T07:09:59.316Z,8.80
2022-09-02T07:15:02.872Z,5.83
2022-09-02T07:20:12.708Z,4.05
2022-09-02T07:25:28.864Z,7.97
2022-09-02T07:30:31.786Z,4.90
2022-09-02T07:35:42.272Z,3.97
2022-09-02T07:40:47.037Z,3.10
2022-09-02T07:45:52.522Z,4.38
2022-09-02T07:55:59.811Z,3.75
2022-09-02T08:01:03.416Z,3.88
2022-09-02T08:06:07.241Z,6.80
2022-09-02T08:11:09.561Z,4.82
2022-09-02T08:16:12.675Z,1.48
2022-09-02T08:21:14.777Z,3.00
2022-09-02T08:26:18.030Z,3.90
2022-09-02T08:31:22.253Z,4.18
2022-09-02T08:36:24.837Z,2.38
2022-09-02T08:41:32.637Z,2.03
2022-09-02T08:46:36.250Z,1.55
2022-09-02T08:51:53.841Z,2.80
2022-09-02T08:56:58.152Z,1.90
2022-09-02T09:07:43.419Z,4.68
2022-09-02T09:13:15.645Z,3.05
2022-09-02T09:18:21.181Z,1.40
2022-09-02T09:23:34.381Z,3.15
2022-09-02T09:28:48.353Z,0.50
2022-09-02T09:34:04.665Z,2.88
2022-09-02T09:39:25.380Z,2.38
2022-09-02T09:44:46.404Z,2.60
2022-09-02T09:50:12.718Z,4.18
2022-09-02T09:55:24.705Z,6.85
2022-09-02T10:00:38.243Z,2.42
2022-09-02T10:05:40.656Z,6.67
2022-09-02T10:10:56.928Z,1.52
2022-09-02T10:16:30.203Z,1.10
2022-09-02T10:21:48.506Z,2.85
2022-09-02T10:26:54.241Z,3.70
2022-09-02T10:31:58.982Z,1.77
2022-09-02T10:37:15.740Z,0.55
2022-09-02T10:42:31.516Z,6.75
2022-09-02T10:47:39.058Z,4.30
2022-09-02T10:53:10.611Z,8.20
2022-09-02T10:58:30.905Z,4.35
2022-09-02T11:03:46.615Z,2.35
2022-09-02T11:09:01.884Z,2.33
2022-09-02T11:14:22.186Z,1.42
2022-09-02T11:19:52.104Z,5.35
2022-09-02T11:25:03.957Z,4.47
2022-09-02T11:30:14.697Z,0.80
2022-09-02T11:35:26.763Z,0.82
2022-09-02T11:40:36.717Z,2.92
2022-09-02T11:45:47.662Z,2.40
2022-09-02T11:51:04.569Z,3.67
2022-09-02T11:56:15.924Z,3.13
2022-09-02T12:01:56.589Z,2.35
2022-09-02T12:07:09.662Z,1.10
2022-09-02T12:12:41.511Z,2.28
2022-09-02T12:17:50.016Z,1.30
2022-09-02T12:22:52.351Z,3.67
2022-09-02T12:28:27.158Z,1.42
2022-09-02T12:33:34.817Z,1.63
2022-09-02T12:38:39.298Z,1.27
2022-09-02T12:43:47.466Z,4.38
2022-09-02T12:49:27.075Z,1.02
2022-09-02T12:54:43.839Z,0.60
2022-09-02T12:59:47.747Z,3.13
2022-09-02T13:04:59.362Z,1.52
2022-09-02T13:10:15.127Z,3.00
2022-09-02T13:15:25.816Z,1.42
2022-09-02T13:20:46.866Z,1.40
2022-09-02T13:26:07.832Z,1.48
2022-09-02T13:31:19.487Z,3.53
2022-09-02T13:36:35.620Z,2.38
2022-09-02T13:41:37.853Z,0.60
2022-09-02T13:46:45.311Z,1.77
2022-09-02T13:51:48.028Z,10.30
2022-09-02T13:56:50.094Z,2.35
2022-09-02T14:01:52.233Z,3.63
2022-09-02T14:06:55.041Z,0.53
2022-09-02T14:11:58.570Z,3.85
2022-09-02T14:17:25.956Z,1.00
2022-09-02T14:22:29.468Z,2.67
2022-09-02T14:27:31.536Z,1.45
2022-09-02T14:32:33.601Z,1.45
2022-09-02T14:37:48.692Z,2.78
2022-09-02T14:42:57.207Z,4.97
2022-09-02T14:48:03.577Z,2.08
2022-09-02T14:53:08.672Z,5.55
2022-09-02T14:58:10.895Z,1.63
2022-09-02T15:03:16.209Z,1.25
2022-09-02T15:08:18.501Z,0.88
2022-09-02T15:13:26.826Z,2.00
2022-09-02T15:18:30.112Z,4.22
2022-09-02T15:23:34.832Z,2.05
2022-09-02T15:28:38.598Z,2.03
2022-09-02T15:33:42.068Z,0.82
2022-09-02T15:38:44.458Z,1.02
2022-09-02T15:43:48.378Z,1.60
2022-09-02T15:48:50.844Z,1.80
2022-09-02T15:54:20.249Z,1.83
2022-09-02T15:59:22.410Z,4.07
2022-09-02T16:04:25.145Z,1.48
2022-09-02T16:09:27.548Z,2.97
2022-09-02T16:14:29.661Z,2.22
2022-09-02T16:19:31.825Z,3.03
2022-09-02T16:24:34.106Z,1.65
2022-09-02T16:29:37.297Z,2.70
2022-09-02T16:34:39.352Z,1.45
2022-09-02T16:39:42.350Z,3.15
2022-09-02T16:44:45.029Z,1.83
2022-09-02T16:49:47.112Z,5.70
2022-09-02T16:54:49.764Z,5.45
2022-09-02T16:59:52.237Z,8.37
2022-09-02T17:04:54.428Z,7.60
2022-09-02T17:09:56.631Z,4.60
2022-09-02T17:14:58.708Z,6.55
2022-09-02T17:20:00.870Z,4.18
2022-09-02T17:25:03.209Z,4.90
2022-09-02T17:30:06.567Z,15.00
2022-09-02T17:35:10.288Z,10.98
2022-09-02T17:40:32.252Z,7.75
2022-09-02T17:45:35.343Z,9.90
2022-09-02T17:50:44.132Z,16.83
2022-09-02T17:55:48.448Z,13.50
2022-09-02T18:00:53.813Z,15.13
2022-09-02T18:06:07.384Z,11.90
2022-09-02T18:16:32.449Z,14.65
2022-09-02T18:22:13.224Z,15.23
2022-09-02T18:28:06.804Z,11.55
2022-09-02T18:33:30.050Z,11.67
2022-09-02T18:38:58.556Z,10.63
2022-09-02T18:44:10.921Z,13.75
2022-09-02T18:49:14.557Z,19.35
2022-09-02T18:54:23.765Z,19.45
2022-09-02T18:59:42.249Z,16.42
2022-09-02T19:04:44.489Z,23.80
2022-09-02T19:09:47.536Z,15.07
2022-09-02T19:14:52.503Z,13.57
2022-09-02T19:19:55.189Z,15.57
2022-09-02T19:25:07.240Z,15.18
2022-09-02T19:30:21.218Z,19.92
2022-09-02T19:35:26.822Z,16.70
2022-09-02T19:40:33.298Z,35.55
2022-09-02T19:45:40.822Z,25.27
2022-09-02T19:50:45.522Z,23.63
2022-09-02T19:55:48.183Z,25.33
2022-09-02T20:00:50.691Z,23.33
2022-09-02T20:05:53.313Z,18.50
2022-09-02T20:10:57.522Z,16.23
2022-09-02T20:16:00.302Z,19.15
2022-09-02T20:21:02.613Z,17.10
2022-09-02T20:26:23.991Z,20.30
2022-09-02T20:32:01.655Z,16.45
2022-09-02T20:37:19.421Z,13.55
2022-09-02T20:42:37.508Z,14.40
2022-09-02T20:47:39.440Z,11.35
2022-09-02T20:53:00.004Z,18.05
2022-09-02T20:58:24.452Z,13.98
2022-09-02T21:03:34.829Z,14.23
2022-09-02T21:08:57.116Z,11.43
2022-09-02T21:14:08.403Z,9.55
2022-09-02T21:19:20.817Z,13.05
2022-09-02T21:24:55.488Z,11.57
2022-09-02T21:30:03.310Z,13.50
2022-09-02T21:35:12.798Z,8.63
2022-09-02T21:40:20.127Z,12.40
2022-09-02T21:45:27.351Z,13.05
2022-09-02T21:50:38.330Z,9.55
2022-09-02T21:55:52.986Z,10.07
2022-09-02T22:01:06.755Z,11.48
2022-09-02T22:11:49.017Z,14.13
2022-09-02T22:17:05.581Z,14.00
2022-09-02T22:22:10.828Z,8.95
2022-09-02T22:27:18.121Z,12.40
2022-09-02T22:32:23.804Z,16.13
2022-09-02T22:37:34.372Z,11.52
2022-09-02T22:42:38.929Z,13.15
2022-09-02T22:48:05.252Z,12.60
2022-09-02T22:53:07.728Z,8.57
2022-09-02T22:58:47.710Z,13.20
2022-09-02T23:04:11.096Z,12.50
2022-09-02T23:09:14.969Z,13.02
2022-09-02T23:14:38.876Z,12.60
2022-09-02T23:20:02.240Z,9.60
2022-09-02T23:25:14.057Z,8.18
2022-09-02T23:30:16.042Z,9.35
2022-09-02T23:36:05.995Z,10.00
2022-09-02T23:41:10.085Z,12.52
2022-09-02T23:46:26.406Z,10.50
2022-09-02T23:51:57.644Z,9.38
2022-09-02T23:57:36.645Z,7.85
